CST,Max TemperatureF,Mean TemperatureF,Min TemperatureF,Max Dew PointF,MeanDew PointF,Min DewpointF,Max Humidity, Mean Humidity, Min Humidity, Max Sea Level PressureIn, Mean Sea Level PressureIn, Min Sea Level PressureIn, Max VisibilityMiles, Mean VisibilityMiles, Min VisibilityMiles, Max Wind SpeedMPH, Mean Wind SpeedMPH, Max Gust SpeedMPH,PrecipitationIn, CloudCover, Events, WindDirDegrees
2012-12-1,37,32,26,33,27,25,100,91,82,29.86,29.75,29.61,10,3,0,20,7,24,T,8,Fog,307
2012-12-2,44,35,26,37,30,25,100,85,70,29.82,29.60,29.30,10,6,0,16,5,20,0.00,1,Fog,135
2012-12-3,47,31,14,38,20,7,82,71,60,30.07,29.71,29.32,10,10,10,38,19,48,T,4,,276
2012-12-4,18,14,10,12,7,5,83,72,61,30.36,30.26,30.11,10,10,7,18,8,21,0.00,3,,25
2012-12-5,44,31,17,29,22,12,80,67,53,30.18,29.80,29.60,10,10,10,30,14,38,0.00,1,,180
2012-12-6,35,25,14,25,19,14,92,78,63,30.05,29.94,29.76,10,10,10,31,14,38,0.00,4,,281
2012-12-7,18,12,6,15,6,2,92,77,61,30.15,30.04,29.88,10,8,0,13,7,15,0.03,6,Fog-Snow,40
2012-12-8,13,6,-1,10,6,-5,92,86,79,30.36,29.97,29.82,10,4,0,20,11,24,0.08,7,Fog-Snow,14
2012-12-9,13,4,-6,4,-2,-10,95,81,66,30.53,30.38,30.09,10,8,2,16,8,20,T,4,,264
2012-12-10,21,12,3,14,8,0,87,77,67,30.03,29.81,29.74,10,10,7,23,13,25,T,4,Snow,242
2012-12-11,19,8,-4,13,2,-8,92,84,75,29.93,29.77,29.52,10,8,1,22,10,28,0.01,5,Snow,47
2012-12-12,19,11,2,15,7,-2,95,86,76,30.09,29.81,29.52,10,6,2,14,7,16,T,7,Snow,348
2012-12-13,28,15,2,27,10,-1,100,89,78,30.14,30.00,29.88,10,5,1,15,5,17,T,8,Snow,135
2012-12-14,26,18,9,24,18,6,100,92,83,29.96,29.77,29.67,10,2,0,14,7,17,0.00,8,Fog,174
2012-12-15,26,16,6,25,15,4,92,86,80,29.88,29.80,29.73,10,8,0,20,8,23,T,4,Fog-Snow,286
2012-12-16,18,13,7,15,11,7,96,90,84,29.90,29.82,29.74,10,3,0,12,5,14,T,7,Fog-Snow,128
2012-12-17,23,19,14,21,17,12,92,88,84,29.80,29.62,29.51,10,4,0,13,7,15,T,8,Fog-Snow,147
2012-12-18,28,24,19,24,19,16,92,83,74,29.69,29.57,29.49,10,7,1,20,8,24,0.01,8,Snow,125
2012-12-19,21,12,3,18,10,1,91,82,73,30.19,29.89,29.63,10,6,1,24,13,29,T,7,Snow,273
2012-12-20,13,2,-10,4,-4,-10,95,81,67,30.27,30.21,30.11,10,7,1,12,2,13,0.00,0,,229
2012-12-21,23,9,-6,14,4,-10,92,80,68,30.24,30.14,30.06,10,9,7,21,5,28,0.00,0,,169
2012-12-22,15,9,2,8,1,-4,88,81,73,30.32,30.23,30.12,10,8,2,17,13,,T,6,Snow,327
2012-12-23,5,1,-4,1,-3,-7,87,83,79,30.32,30.21,30.13,10,4,0,14,7,16,0.06,8,Fog-Snow,36
2012-12-24,2,-3,-9,-5,-8,-13,82,76,69,30.54,30.39,30.18,10,9,3,13,8,18,T,4,Snow,303
2012-12-25,0,-6,-12,-5,-9,-16,83,77,71,30.61,30.51,30.34,10,8,1,17,5,20,0.01,5,Snow,278
2012-12-26,-4,-9,-14,-8,-11,-17,90,82,74,30.40,30.25,30.10,10,6,2,8,4,9,T,7,Snow,348
2012-12-27,10,1,-9,7,0,-12,88,82,76,30.26,30.11,30.01,10,4,1,6,1,6,T,7,Snow,160
2012-12-28,13,2,-9,7,0,-12,91,81,70,30.14,30.09,29.94,10,9,2,12,6,15,T,5,Snow,240
2012-12-29,24,7,-10,15,-2,-13,92,81,70,30.14,30.07,29.92,10,10,7,18,7,21,0.00,2,,214
2012-12-30,24,11,-2,19,11,-7,87,78,68,30.25,30.04,29.90,10,7,1,25,14,30,T,7,Snow,276
2012-12-31,2,-6,-14,-3,-9,-17,90,84,78,30.32,30.23,30.08,10,9,3,12,4,14,T,2,,168